Time;durP1;ratioP1;P1;durP2;ratioP2;P2;SDS_P1;SDS_P2;PMS_P1;PMS_P2;Temp;Humidity;BMP_temperature;BMP_pressure;BME280_temperature;BME280_humidity;BME280_pressure;Samples;Min_cycle;Max_cycle;Signal;HPM_P1;HPM_P2
2023/08/12 00:02:34;;;;;;;;;;;;;;;29.07;41.56;94650.63;5041197;28;9071;-60
2023/08/12 00:05:16;;;;;;;;;;;;;;;29.05;41.23;94648.41;4935967;28;7205;-60
2023/08/12 00:07:56;;;;;;;;;;;;;;;29.03;41.58;94641.88;4929264;29;7069;-60
2023/08/12 00:10:22;;;;;;;;;;;;;;;29.03;41.73;94637.09;4934093;28;7009;-60
2023/08/12 00:12:51;;;;;;;;;;;;;;;29.04;41.19;94633.03;4929377;28;7337;-60
2023/08/12 00:15:25;;;;;;;;;;;;;;;29.04;41.43;94627.50;4923585;28;7285;-60
2023/08/12 00:18:00;;;;;;;;;;;;;;;29.04;41.54;94638.59;4937629;28;9502;-60
2023/08/12 00:20:43;;;;;;;;;;;;;;;29.04;41.51;94635.81;4928599;28;6986;-60
2023/08/12 00:23:19;;;;;;;;;;;;;;;29.00;41.19;94629.84;4935546;28;6998;-60
2023/08/12 00:25:49;;;;;;;;;;;;;;;29.02;40.57;94627.28;4946469;28;7160;-60
2023/08/12 00:28:32;;;;;;;;;;;;;;;29.01;41.82;94625.78;4937210;28;6986;-60
2023/08/12 00:31:07;;;;;;;;;;;;;;;29.01;41.21;94620.25;4948710;28;9145;-60
2023/08/12 00:33:35;;;;;;;;;;;;;;;28.98;41.35;94615.78;4934018;28;9018;-59
2023/08/12 00:36:13;;;;;;;;;;;;;;;29.00;41.80;94609.69;4946325;28;6985;-60
2023/08/12 00:38:40;;;;;;;;;;;;;;;29.00;41.27;94613.22;4928950;29;7269;-54
2023/08/12 00:41:14;;;;;;;;;;;;;;;29.00;41.12;94618.00;4952465;28;9029;-54
2023/08/12 00:44:26;;;;;;;;;;;;;;;28.99;41.51;94616.53;5033315;28;7273;-54
2023/08/12 00:46:59;;;;;;;;;;;;;;;28.96;41.25;94623.09;5033886;28;7006;-54
2023/08/12 00:49:32;;;;;;;;;;;;;;;28.97;40.73;94628.09;5048524;28;9033;-54
2023/08/12 00:52:04;;;;;;;;;;;;;;;28.96;41.15;94623.88;5020077;28;7230;-54
2023/08/12 00:54:57;;;;;;;;;;;;;;;28.98;40.87;94626.84;4997685;28;6993;-54
2023/08/12 00:57:24;;;;;;;;;;;;;;;28.97;41.34;94625.34;5015265;28;7008;-54
2023/08/12 00:59:55;;;;;;;;;;;;;;;28.96;41.09;94623.88;5019447;28;7353;-54
2023/08/12 01:02:24;;;;;;;;;;;;;;;28.95;40.41;94621.59;5025901;28;7232;-54
2023/08/12 01:04:57;;;;;;;;;;;;;;;28.94;41.73;94620.88;5035658;28;7261;-54
2023/08/12 01:07:55;;;;;;;;;;;;;;;28.94;41.26;94620.88;5032551;28;7014;-54
2023/08/12 01:10:36;;;;;;;;;;;;;;;28.93;40.61;94607.53;5010541;28;7518;-54
2023/08/12 01:13:25;;;;;;;;;;;;;;;28.92;41.37;94606.81;5012453;28;7399;-53
2023/08/12 01:15:58;;;;;;;;;;;;;;;28.89;41.44;94607.09;5010600;28;7458;-55
2023/08/12 01:18:37;;;;;;;;;;;;;;;28.91;40.89;94610.84;5046663;28;7213;-54
2023/08/12 01:21:07;;;;;;;;;;;;;;;28.91;40.70;94610.09;5031305;28;9199;-54
2023/08/12 01:23:35;;;;;;;;;;;;;;;28.89;40.79;94613.41;5034711;28;9081;-54
2023/08/12 01:26:06;;;;;;;;;;;;;;;28.90;40.37;94603.06;5014978;28;7272;-54
2023/08/12 01:28:46;;;;;;;;;;;;;;;28.89;41.16;94616.16;5030485;28;7055;-54
2023/08/12 01:31:24;;;;;;;;;;;;;;;28.88;40.61;94613.94;5015181;28;9474;-54
2023/08/12 01:34:29;;;;;;;;;;;;;;;28.87;40.71;94610.41;5032414;28;7275;-54
2023/08/12 01:37:20;;;;;;;;;;;;;;;28.85;40.60;94604.66;4949081;29;9049;-54
2023/08/12 01:40:26;;;;;;;;;;;;;;;28.85;41.27;94607.44;4953586;28;7144;-54
2023/08/12 01:43:26;;;;;;;;;;;;;;;28.86;41.07;94606.13;4969961;28;8514;-54
2023/08/12 01:46:06;;;;;;;;;;;;;;;28.83;41.02;94601.66;4936846;29;7288;-54
2023/08/12 01:49:05;;;;;;;;;;;;;;;28.84;40.88;94605.91;4952796;29;7092;-54
2023/08/12 01:52:25;;;;;;;;;;;;;;;28.83;40.90;94601.66;4860867;29;7298;-54
2023/08/12 01:55:22;;;;;;;;;;;;;;;28.83;41.53;94600.91;4868837;29;7062;-55
2023/08/12 01:58:00;;;;;;;;;;;;;;;28.80;41.14;94599.19;4822024;29;7223;-54
2023/08/12 02:00:46;;;;;;;;;;;;;;;28.82;40.87;94607.72;4820420;29;7204;-54
2023/08/12 02:03:22;;;;;;;;;;;;;;;28.81;41.15;94601.44;4813344;29;7261;-54
2023/08/12 02:06:27;;;;;;;;;;;;;;;28.82;41.36;94602.94;4821112;29;7244;-54
2023/08/12 02:08:53;;;;;;;;;;;;;;;28.81;40.98;94590.38;4821465;29;10034;-54
2023/08/12 02:11:21;;;;;;;;;;;;;;;28.81;40.88;94600.69;4818587;29;7039;-54
2023/08/12 02:14:36;;;;;;;;;;;;;;;28.81;41.16;94595.91;4824467;29;7281;-54
2023/08/12 02:17:19;;;;;;;;;;;;;;;28.80;41.06;94597.19;4839356;29;6991;-54
2023/08/12 02:19:46;;;;;;;;;;;;;;;28.78;40.69;94585.88;4833370;29;9278;-55
2023/08/12 02:22:15;;;;;;;;;;;;;;;28.79;41.24;94587.38;4880447;29;7518;-54
2023/08/12 02:24:42;;;;;;;;;;;;;;;28.76;41.11;94582.91;4890451;29;9060;-54
2023/08/12 02:27:10;;;;;;;;;;;;;;;28.78;40.56;94580.34;4925120;28;7025;-54
2023/08/12 02:29:38;;;;;;;;;;;;;;;28.78;40.95;94579.59;4966651;28;7070;-54
2023/08/12 02:32:06;;;;;;;;;;;;;;;28.76;41.47;94571.81;4977250;28;7017;-54
2023/08/12 02:34:51;;;;;;;;;;;;;;;28.76;41.19;94571.06;5019956;28;7866;-55
2023/08/12 02:37:38;;;;;;;;;;;;;;;28.77;41.21;94572.56;5055980;28;7225;-54
2023/08/12 02:40:05;;;;;;;;;;;;;;;28.73;41.31;94572.88;5079442;28;7322;-54
2023/08/12 02:42:31;;;;;;;;;;;;;;;28.76;41.38;94582.91;5048914;28;9089;-54
2023/08/12 02:45:14;;;;;;;;;;;;;;;28.75;41.10;94575.84;5054440;28;7446;-54
2023/08/12 02:47:52;;;;;;;;;;;;;;;28.76;40.71;94577.34;5061644;28;9333;-54
2023/08/12 02:50:22;;;;;;;;;;;;;;;28.74;41.08;94571.59;5047455;28;7532;-54
2023/08/12 02:53:15;;;;;;;;;;;;;;;28.75;40.67;94580.66;5051888;28;7265;-54
2023/08/12 02:55:47;;;;;;;;;;;;;;;28.73;40.92;94572.88;5060570;28;7108;-54
2023/08/12 02:58:15;;;;;;;;;;;;;;;28.73;40.64;94577.69;5043055;28;7102;-60
2023/08/12 03:00:45;;;;;;;;;;;;;;;28.70;41.14;94568.41;5051895;28;7178;-60
2023/08/12 03:03:12;;;;;;;;;;;;;;;28.72;41.39;94571.38;5064840;28;7183;-60
2023/08/12 03:05:40;;;;;;;;;;;;;;;28.72;40.93;94571.38;5047212;28;7478;-60
2023/08/12 03:08:07;;;;;;;;;;;;;;;28.68;41.53;94568.19;5075996;28;7190;-60
2023/08/12 03:10:37;;;;;;;;;;;;;;;28.71;41.47;94572.66;5055444;28;7306;-60
2023/08/12 03:13:14;;;;;;;;;;;;;;;28.70;40.60;94573.19;5066749;28;7190;-60
2023/08/12 03:16:14;;;;;;;;;;;;;;;28.72;40.85;94576.16;5036059;28;7283;-60
2023/08/12 03:19:00;;;;;;;;;;;;;;;28.71;41.19;94571.94;5035431;28;9815;-60
2023/08/12 03:22:10;;;;;;;;;;;;;;;28.70;41.50;94568.41;5047602;28;7227;-60
2023/08/12 03:24:57;;;;;;;;;;;;;;;28.69;41.52;94575.19;5067740;28;9104;-60
2023/08/12 03:28:01;;;;;;;;;;;;;;;28.66;41.31;94575.50;5051107;28;7411;-60
2023/08/12 03:30:30;;;;;;;;;;;;;;;28.67;41.08;94569.44;5009797;28;7275;-60
2023/08/12 03:33:09;;;;;;;;;;;;;;;28.67;41.20;94565.94;5028166;28;9590;-60
2023/08/12 03:35:49;;;;;;;;;;;;;;;28.67;41.00;94566.69;5007183;28;7542;-59
2023/08/12 03:38:17;;;;;;;;;;;;;;;28.67;41.31;94572.22;5015850;28;7551;-60
2023/08/12 03:40:52;;;;;;;;;;;;;;;28.65;41.64;94566.47;5015679;28;8753;-60
2023/08/12 03:43:18;;;;;;;;;;;;;;;28.63;41.07;94563.47;5020181;28;7380;-60
2023/08/12 03:45:46;;;;;;;;;;;;;;;28.61;41.17;94571.56;5005796;28;6939;-60
2023/08/12 03:48:13;;;;;;;;;;;;;;;28.62;41.60;94567.53;5032551;28;7437;-60
2023/08/12 03:50:53;;;;;;;;;;;;;;;28.64;41.30;94573.28;5022812;28;7005;-60
2023/08/12 03:53:43;;;;;;;;;;;;;;;28.62;41.47;94564.00;5027133;28;7041;-60
2023/08/12 03:56:14;;;;;;;;;;;;;;;28.62;41.04;94573.06;5015532;28;7005;-60
2023/08/12 03:58:45;;;;;;;;;;;;;;;28.61;40.77;94562.50;5003666;28;7061;-60
2023/08/12 04:01:12;;;;;;;;;;;;;;;28.60;41.15;94558.97;5041329;28;7348;-60
2023/08/12 04:03:46;;;;;;;;;;;;;;;28.61;41.16;94566.03;5042785;28;7200;-60
2023/08/12 04:06:12;;;;;;;;;;;;;;;28.59;41.56;94565.81;5077235;28;7246;-60
2023/08/12 04:08:41;;;;;;;;;;;;;;;28.62;41.33;94561.25;5048324;28;7253;-61
2023/08/12 04:11:08;;;;;;;;;;;;;;;28.62;41.79;94573.06;5054824;28;9075;-61
2023/08/12 04:13:36;;;;;;;;;;;;;;;28.61;41.69;94568.03;5050248;28;8748;-62
2023/08/12 04:16:06;;;;;;;;;;;;;;;28.61;41.73;94570.81;5045708;28;9294;-62
2023/08/12 04:18:35;;;;;;;;;;;;;;;28.60;41.17;94563.78;5035212;28;7210;-61
2023/08/12 04:21:07;;;;;;;;;;;;;;;28.60;41.09;94556.22;5044892;28;7804;-61
2023/08/12 04:23:33;;;;;;;;;;;;;;;28.61;41.83;94554.19;5045380;28;6995;-62
2023/08/12 04:26:02;;;;;;;;;;;;;;;28.59;41.16;94553.97;5050380;28;9126;-62
2023/08/12 04:28:30;;;;;;;;;;;;;;;28.58;41.63;94552.50;5047972;28;7331;-62
2023/08/12 04:31:30;;;;;;;;;;;;;;;28.59;41.87;94557.50;5046390;28;6986;-61
2023/08/12 04:34:16;;;;;;;;;;;;;;;28.58;42.34;94560.81;5041884;28;7093;-62
2023/08/12 04:36:43;;;;;;;;;;;;;;;28.58;42.02;94561.53;5046807;28;7713;-61
2023/08/12 04:39:17;;;;;;;;;;;;;;;28.60;41.95;94561.03;5057922;28;7241;-62
2023/08/12 04:41:45;;;;;;;;;;;;;;;28.58;41.73;94567.06;5059212;28;7564;-62
2023/08/12 04:44:27;;;;;;;;;;;;;;;28.59;41.34;94556.75;5041923;28;7055;-62
2023/08/12 04:47:04;;;;;;;;;;;;;;;28.59;40.96;94557.50;5072506;28;7238;-62
2023/08/12 04:49:43;;;;;;;;;;;;;;;28.59;41.65;94568.56;5042519;28;6986;-62
2023/08/12 04:52:17;;;;;;;;;;;;;;;28.58;41.41;94564.31;5040404;28;7279;-62
2023/08/12 04:54:48;;;;;;;;;;;;;;;28.57;41.32;94571.13;5051748;28;7209;-61
2023/08/12 04:57:15;;;;;;;;;;;;;;;28.57;41.25;94571.13;5059745;28;9123;-62
2023/08/12 04:59:48;;;;;;;;;;;;;;;28.58;41.62;94567.06;5042840;28;6975;-62
2023/08/12 05:02:20;;;;;;;;;;;;;;;28.57;41.78;94562.81;5075554;28;9701;-62
2023/08/12 05:04:50;;;;;;;;;;;;;;;28.57;42.30;94562.81;5053235;28;6909;-61
2023/08/12 05:07:33;;;;;;;;;;;;;;;28.55;41.71;94559.81;5032763;28;9086;-61
2023/08/12 05:10:11;;;;;;;;;;;;;;;28.56;42.29;94569.59;5064759;28;8758;-62
2023/08/12 05:13:07;;;;;;;;;;;;;;;28.55;41.60;94568.09;5045479;28;7223;-62
2023/08/12 05:15:47;;;;;;;;;;;;;;;28.55;41.91;94559.06;5063803;28;7172;-62
2023/08/12 05:18:32;;;;;;;;;;;;;;;28.54;41.70;94563.84;5048646;28;7099;-62
2023/08/12 05:21:08;;;;;;;;;;;;;;;28.53;42.01;94561.59;5060995;28;7012;-63
2023/08/12 05:23:39;;;;;;;;;;;;;;;28.53;41.75;94558.84;5062693;28;7211;-63
2023/08/12 05:26:09;;;;;;;;;;;;;;;28.54;41.66;94558.28;5051552;28;7231;-63
2023/08/12 05:28:45;;;;;;;;;;;;;;;28.51;41.64;94551.06;5080032;28;7013;-62
2023/08/12 05:31:13;;;;;;;;;;;;;;;28.52;41.96;94555.31;5069951;28;9703;-63
2023/08/12 05:33:42;;;;;;;;;;;;;;;28.53;42.74;94562.34;5053950;28;7017;-64
2023/08/12 05:36:26;;;;;;;;;;;;;;;28.54;42.58;94558.28;5048620;28;7147;-63
2023/08/12 05:38:52;;;;;;;;;;;;;;;28.54;42.43;94563.84;5038388;28;9360;-63
2023/08/12 05:41:17;;;;;;;;;;;;;;;28.54;42.79;94563.84;5046161;28;7208;-63
2023/08/12 05:44:03;;;;;;;;;;;;;;;28.54;41.93;94563.84;5043555;28;6988;-63
2023/08/12 05:46:33;;;;;;;;;;;;;;;28.51;42.02;94567.66;5034608;28;7074;-63
2023/08/12 05:49:00;;;;;;;;;;;;;;;28.55;42.80;94572.88;5008960;28;7196;-63
2023/08/12 05:51:28;;;;;;;;;;;;;;;28.55;41.93;94570.88;5027679;28;7254;-63
2023/08/12 05:54:01;;;;;;;;;;;;;;;28.56;43.03;94572.34;5042520;28;7202;-63
2023/08/12 05:56:32;;;;;;;;;;;;;;;28.56;42.71;94568.84;5037519;28;9143;-63
2023/08/12 05:59:12;;;;;;;;;;;;;;;28.53;42.55;94567.88;5024669;28;9091;-63
2023/08/12 06:01:40;;;;;;;;;;;;;;;28.55;42.42;94572.88;5027582;28;6999;-63
2023/08/12 06:04:24;;;;;;;;;;;;;;;28.56;42.98;94571.63;5027720;28;7483;-63
2023/08/12 06:06:56;;;;;;;;;;;;;;;28.55;42.85;94568.09;5055382;28;9305;-63
2023/08/12 06:09:22;;;;;;;;;;;;;;;28.54;42.19;94572.13;5050017;28;7241;-62
2023/08/12 06:12:28;;;;;;;;;;;;;;;28.53;43.35;94575.44;5037121;28;6957;-64
2023/08/12 06:15:01;;;;;;;;;;;;;;;28.53;42.60;94569.91;5032019;28;7250;-64
2023/08/12 06:17:42;;;;;;;;;;;;;;;28.51;42.70;94567.66;5042983;28;7262;-64
2023/08/12 06:20:10;;;;;;;;;;;;;;;28.52;42.61;94566.38;5060689;28;6990;-63
2023/08/12 06:22:53;;;;;;;;;;;;;;;28.54;42.93;94571.38;5035758;28;7254;-64
2023/08/12 06:25:56;;;;;;;;;;;;;;;28.50;42.76;94566.16;5031570;28;6958;-64
2023/08/12 06:28:32;;;;;;;;;;;;;;;28.51;43.29;94567.66;4971013;28;9075;-62
2023/08/12 06:31:11;;;;;;;;;;;;;;;28.52;43.05;94560.09;4965977;28;7193;-62
2023/08/12 06:33:48;;;;;;;;;;;;;;;28.55;42.74;94567.34;4953952;28;7197;-61
2023/08/12 06:36:30;;;;;;;;;;;;;;;28.55;43.08;94568.09;4944244;28;7503;-62
2023/08/12 06:39:08;;;;;;;;;;;;;;;28.52;43.15;94571.91;4954104;28;7513;-61
2023/08/12 06:41:43;;;;;;;;;;;;;;;28.55;42.81;94572.88;4969180;28;7263;-62
2023/08/12 06:44:09;;;;;;;;;;;;;;;28.53;42.86;94578.97;4990189;28;9116;-61
2023/08/12 06:46:46;;;;;;;;;;;;;;;28.54;43.05;94574.91;4972593;28;9065;-62
2023/08/12 06:49:21;;;;;;;;;;;;;;;28.55;42.93;94568.09;4990403;28;9444;-62
2023/08/12 06:51:48;;;;;;;;;;;;;;;28.57;43.41;94570.34;4983864;28;7232;-62
2023/08/12 06:54:52;;;;;;;;;;;;;;;28.56;42.43;94575.13;4970870;28;7179;-62
2023/08/12 06:57:39;;;;;;;;;;;;;;;28.55;43.00;94579.19;4928229;28;7016;-62
2023/08/12 07:00:29;;;;;;;;;;;;;;;28.55;43.23;94579.19;4912090;29;6995;-61
2023/08/12 07:03:11;;;;;;;;;;;;;;;28.54;43.60;94572.13;4966683;28;7276;-62
2023/08/12 07:05:47;;;;;;;;;;;;;;;28.53;43.13;94578.19;5002031;28;7506;-62
2023/08/12 07:08:28;;;;;;;;;;;;;;;28.54;43.26;94583.22;4992616;28;9105;-61
2023/08/12 07:11:05;;;;;;;;;;;;;;;28.51;43.06;94583.53;5006333;28;7922;-61
2023/08/12 07:14:00;;;;;;;;;;;;;;;28.53;43.44;94589.28;4991164;28;6990;-62
2023/08/12 07:16:55;;;;;;;;;;;;;;;28.53;43.58;94584.50;4970578;28;7477;-61
2023/08/12 07:19:22;;;;;;;;;;;;;;;28.55;43.00;94589.50;4925475;28;9302;-60
2023/08/12 07:22:23;;;;;;;;;;;;;;;28.57;43.99;94587.72;4913200;29;7283;-60
2023/08/12 07:25:18;;;;;;;;;;;;;;;28.56;43.75;94594.50;4907737;29;7280;-61
2023/08/12 07:27:55;;;;;;;;;;;;;;;28.57;43.95;94581.41;4879906;29;7538;-61
2023/08/12 07:30:21;;;;;;;;;;;;;;;28.57;43.17;94593.25;4871348;29;8443;-61
2023/08/12 07:32:47;;;;;;;;;;;;;;;28.57;44.21;94586.94;4883647;29;6938;-61
2023/08/12 07:35:51;;;;;;;;;;;;;;;28.56;43.26;94588.97;4884368;29;9154;-61
2023/08/12 07:38:27;;;;;;;;;;;;;;;28.53;43.84;94592.03;4875237;29;6991;-55
2023/08/12 07:41:06;;;;;;;;;;;;;;;28.55;43.67;94584.72;4875907;29;7013;-54
2023/08/12 07:43:31;;;;;;;;;;;;;;;28.54;43.65;94588.75;4877163;29;7014;-55
2023/08/12 07:46:04;;;;;;;;;;;;;;;28.55;43.42;94587.47;4879418;29;9152;-55
2023/08/12 07:48:45;;;;;;;;;;;;;;;28.60;43.86;94592.19;4876256;29;9065;-54
2023/08/12 07:51:20;;;;;;;;;;;;;;;28.58;44.24;94588.47;4879533;29;7234;-54
2023/08/12 07:53:50;;;;;;;;;;;;;;;28.56;44.76;94586.19;4910714;29;9079;-54
2023/08/12 07:56:21;;;;;;;;;;;;;;;28.59;46.79;94576.88;4961667;28;9068;-55
2023/08/12 07:59:16;;;;;;;;;;;;;;;28.64;45.26;94575.31;4954661;28;7052;-55
2023/08/12 08:01:42;;;;;;;;;;;;;;;28.67;44.12;94588.06;4937918;28;9080;-55
2023/08/12 08:04:10;;;;;;;;;;;;;;;28.68;44.19;94582.03;4952812;28;7215;-54
2023/08/12 08:06:51;;;;;;;;;;;;;;;28.67;44.57;94580.50;5005666;28;7235;-55
2023/08/12 08:09:36;;;;;;;;;;;;;;;28.68;44.82;94579.25;4993779;28;7165;-55
2023/08/12 08:12:04;;;;;;;;;;;;;;;28.69;46.41;94583.50;4996561;28;7213;-54
2023/08/12 08:14:49;;;;;;;;;;;;;;;28.74;45.15;94590.22;4974686;28;7178;-55
2023/08/12 08:17:48;;;;;;;;;;;;;;;28.77;45.61;94595.47;5023360;28;7264;-55
2023/08/12 08:20:16;;;;;;;;;;;;;;;28.77;45.36;94595.47;4995188;28;7418;-55
2023/08/12 08:22:42;;;;;;;;;;;;;;;28.77;45.61;94589.94;4998172;28;7287;-55
2023/08/12 08:25:09;;;;;;;;;;;;;;;28.78;45.08;94599.72;5010472;28;8109;-55
2023/08/12 08:27:46;;;;;;;;;;;;;;;28.76;45.31;94599.50;5009868;28;7271;-55
2023/08/12 08:30:17;;;;;;;;;;;;;;;28.76;45.44;94605.03;5011004;28;7461;-55
2023/08/12 08:33:04;;;;;;;;;;;;;;;28.79;46.05;94609.53;4975330;28;7648;-55
2023/08/12 08:35:49;;;;;;;;;;;;;;;28.79;44.95;94604.00;5008023;28;7524;-55
2023/08/12 08:38:36;;;;;;;;;;;;;;;28.80;45.60;94616.56;5012881;28;7026;-55
2023/08/12 08:41:21;;;;;;;;;;;;;;;28.81;45.43;94628.38;5063232;28;9020;-55
2023/08/12 08:43:52;;;;;;;;;;;;;;;28.84;46.21;94625.28;5048095;28;9243;-55
2023/08/12 08:46:19;;;;;;;;;;;;;;;28.85;45.87;94632.34;5049721;28;7873;-55
2023/08/12 08:49:16;;;;;;;;;;;;;;;28.88;45.50;94627.78;5043675;28;7241;-60
2023/08/12 08:51:52;;;;;;;;;;;;;;;28.88;45.30;94639.56;5039968;28;6860;-60
2023/08/12 08:54:21;;;;;;;;;;;;;;;28.88;44.46;94645.13;5048306;28;7401;-60
2023/08/12 08:57:05;;;;;;;;;;;;;;;28.88;45.20;94639.56;5045166;28;7881;-60
2023/08/12 08:59:31;;;;;;;;;;;;;;;28.88;45.30;94636.09;5071585;28;7311;-60
2023/08/12 09:02:19;;;;;;;;;;;;;;;28.88;44.66;94644.38;5064340;28;7125;-60
2023/08/12 09:05:02;;;;;;;;;;;;;;;28.87;44.71;94651.94;5050656;28;7188;-60
2023/08/12 09:07:31;;;;;;;;;;;;;;;28.86;45.17;94650.44;5075936;28;7116;-60
2023/08/12 09:10:29;;;;;;;;;;;;;;;28.86;45.42;94658.00;5047553;28;7847;-60
2023/08/12 09:12:59;;;;;;;;;;;;;;;28.88;45.15;94663.78;4989218;28;7270;-60
2023/08/12 09:15:26;;;;;;;;;;;;;;;28.87;44.59;94670.56;4988622;28;7769;-60
2023/08/12 09:17:53;;;;;;;;;;;;;;;28.85;44.58;94660.03;4967870;28;7607;-60
2023/08/12 09:20:23;;;;;;;;;;;;;;;28.85;44.44;94665.56;4970625;28;9291;-61
2023/08/12 09:23:03;;;;;;;;;;;;;;;28.83;44.63;94672.91;4973672;28;7234;-60
2023/08/12 09:25:30;;;;;;;;;;;;;;;28.82;44.63;94665.84;4986083;28;7246;-60
2023/08/12 09:27:59;;;;;;;;;;;;;;;28.91;45.22;94671.75;4987861;28;7264;-60
2023/08/12 09:30:34;;;;;;;;;;;;;;;28.96;44.96;94678.50;4974801;28;6999;-60
2023/08/12 09:33:23;;;;;;;;;;;;;;;29.10;44.60;94672.47;4989344;28;7341;-60
2023/08/12 09:35:50;;;;;;;;;;;;;;;29.22;44.64;94675.09;4989397;28;8835;-60
2023/08/12 09:38:16;;;;;;;;;;;;;;;29.26;44.18;94675.53;4964128;28;9057;-59
2023/08/12 09:40:52;;;;;;;;;;;;;;;29.24;44.53;94687.16;4983945;28;9108;-60
2023/08/12 09:43:18;;;;;;;;;;;;;;;29.28;43.97;94693.13;4988959;28;7306;-60
2023/08/12 09:45:56;;;;;;;;;;;;;;;29.26;44.92;94692.91;4975061;28;7065;-60
2023/08/12 09:48:27;;;;;;;;;;;;;;;29.22;43.94;94694.47;4978540;28;9295;-60
2023/08/12 09:51:00;;;;;;;;;;;;;;;29.15;44.52;94690.28;5043928;28;8196;-60
2023/08/12 09:53:27;;;;;;;;;;;;;;;29.12;45.10;94702.44;5064494;28;6980;-60
2023/08/12 09:56:01;;;;;;;;;;;;;;;29.05;45.36;94687.16;5046905;28;7343;-60
2023/08/12 09:58:36;;;;;;;;;;;;;;;29.08;44.69;94697.19;5043516;28;7568;-64
2023/08/12 10:01:05;;;;;;;;;;;;;;;29.07;45.00;94694.94;5048496;28;6995;-63
2023/08/12 10:03:43;;;;;;;;;;;;;;;29.05;45.72;94694.72;5065780;28;7285;-63
2023/08/12 10:06:11;;;;;;;;;;;;;;;29.04;46.40;94702.28;5043644;28;8764;-64
2023/08/12 10:08:43;;;;;;;;;;;;;;;29.03;46.37;94700.81;5045806;28;7631;-62
2023/08/12 10:11:42;;;;;;;;;;;;;;;29.01;45.39;94700.56;5048941;28;9366;-62
2023/08/12 10:14:09;;;;;;;;;;;;;;;28.98;45.64;94704.38;4969199;28;8432;-62
2023/08/12 10:16:46;;;;;;;;;;;;;;;28.99;45.89;94702.38;5003885;28;9409;-62
2023/08/12 10:19:16;;;;;;;;;;;;;;;29.00;45.70;94704.59;4969954;28;7164;-63
2023/08/12 10:21:49;;;;;;;;;;;;;;;28.98;44.99;94709.94;4992395;28;7249;-62
2023/08/12 10:24:18;;;;;;;;;;;;;;;29.00;45.95;94712.16;4971865;28;7241;-63
2023/08/12 10:27:18;;;;;;;;;;;;;;;29.00;45.45;94712.16;4968799;28;7547;-63
2023/08/12 10:29:58;;;;;;;;;;;;;;;29.02;45.91;94702.06;4905116;29;7236;-63
2023/08/12 10:32:31;;;;;;;;;;;;;;;29.03;45.10;94692.50;4892406;29;7384;-63
2023/08/12 10:35:01;;;;;;;;;;;;;;;29.00;45.33;94690.75;4893639;29;8581;-63
2023/08/12 10:37:35;;;;;;;;;;;;;;;29.04;46.13;94702.28;4900788;29;9133;-63
2023/08/12 10:40:08;;;;;;;;;;;;;;;29.04;45.57;94699.50;4890982;29;6900;-63
2023/08/12 10:42:47;;;;;;;;;;;;;;;29.05;45.55;94698.25;4888340;29;7264;-63
2023/08/12 10:45:16;;;;;;;;;;;;;;;29.08;45.46;94713.03;4894125;29;7215;-63
2023/08/12 10:48:09;;;;;;;;;;;;;;;29.10;45.44;94711.25;4894278;29;8138;-62
2023/08/12 10:50:35;;;;;;;;;;;;;;;29.12;45.77;94707.97;4912548;28;7113;-62
2023/08/12 10:53:31;;;;;;;;;;;;;;;29.14;45.76;94721.28;4947375;28;7466;-63
2023/08/12 10:56:04;;;;;;;;;;;;;;;29.14;45.27;94715.75;4949679;28;8894;-62
2023/08/12 10:58:47;;;;;;;;;;;;;;;29.12;45.15;94727.34;4944482;28;8775;-63
2023/08/12 11:01:17;;;;;;;;;;;;;;;29.12;44.97;94727.34;4951709;28;7182;-62
2023/08/12 11:03:53;;;;;;;;;;;;;;;29.12;45.24;94729.38;4951213;28;8863;-63
2023/08/12 11:06:26;;;;;;;;;;;;;;;29.13;45.14;94725.31;5038703;28;7419;-63
2023/08/12 11:08:53;;;;;;;;;;;;;;;29.13;45.42;94726.06;5045785;28;7397;-63
2023/08/12 11:11:23;;;;;;;;;;;;;;;29.15;45.63;94711.69;5050184;28;7186;-63
2023/08/12 11:14:14;;;;;;;;;;;;;;;29.10;46.13;94694.63;5078594;28;7613;-63
2023/08/12 11:16:46;;;;;;;;;;;;;;;29.09;45.46;94698.69;5050150;28;7634;-63
2023/08/12 11:19:21;;;;;;;;;;;;;;;29.14;45.63;94696.34;5061857;28;7353;-63
2023/08/12 11:22:32;;;;;;;;;;;;;;;29.17;45.83;94689.81;5044102;28;7396;-62
2023/08/12 11:25:00;;;;;;;;;;;;;;;29.16;46.39;94691.03;4966714;28;6957;-63
2023/08/12 11:27:51;;;;;;;;;;;;;;;29.15;45.49;94681.22;4954662;28;7189;-63
2023/08/12 11:30:21;;;;;;;;;;;;;;;29.15;46.02;94678.44;4956203;28;7235;-63
2023/08/12 11:32:52;;;;;;;;;;;;;;;29.15;45.35;94667.38;4954989;28;7105;-63
2023/08/12 11:35:21;;;;;;;;;;;;;;;29.14;46.06;94663.88;4956193;28;7278;-62
2023/08/12 11:37:53;;;;;;;;;;;;;;;29.17;45.49;94660.06;4970341;28;7166;-63
2023/08/12 11:40:31;;;;;;;;;;;;;;;29.17;46.15;94659.31;4954802;28;7010;-62
2023/08/12 11:43:06;;;;;;;;;;;;;;;29.17;45.89;94662.81;4968326;28;7140;-63
2023/08/12 11:45:44;;;;;;;;;;;;;;;29.20;45.56;94656.25;4975739;28;7246;-63
2023/08/12 11:48:12;;;;;;;;;;;;;;;29.20;45.95;94647.16;4950058;28;7424;-62
2023/08/12 11:50:51;;;;;;;;;;;;;;;29.24;45.50;94650.38;4965217;28;9492;-63
2023/08/12 11:53:17;;;;;;;;;;;;;;;29.25;45.56;94643.56;4949550;28;7244;-63
2023/08/12 11:55:43;;;;;;;;;;;;;;;29.25;45.10;94638.78;4948215;28;7314;-63
2023/08/12 11:58:18;;;;;;;;;;;;;;;29.29;45.65;94642.00;4946632;28;8838;-63
2023/08/12 12:00:47;;;;;;;;;;;;;;;29.31;45.45;94641.44;4955811;28;7012;-63
2023/08/12 12:03:13;;;;;;;;;;;;;;;29.31;44.85;94628.34;5051796;28;8794;-63
2023/08/12 12:05:40;;;;;;;;;;;;;;;29.33;45.16;94630.59;5044353;28;9022;-64
2023/08/12 12:08:15;;;;;;;;;;;;;;;29.34;45.54;94624.50;5041738;28;8215;-63
2023/08/12 12:10:43;;;;;;;;;;;;;;;29.35;45.26;94619.72;5043857;28;7188;-63
2023/08/12 12:13:14;;;;;;;;;;;;;;;29.32;45.89;94615.97;5048264;28;8031;-63
2023/08/12 12:15:50;;;;;;;;;;;;;;;29.35;45.80;94619.72;5047078;28;7272;-63
2023/08/12 12:18:27;;;;;;;;;;;;;;;29.34;45.66;94607.88;5060244;28;9321;-56
2023/08/12 12:21:21;;;;;;;;;;;;;;;29.33;44.91;94600.09;5047980;28;7223;-56
2023/08/12 12:23:57;;;;;;;;;;;;;;;29.35;45.17;94606.63;5042268;28;7591;-56
2023/08/12 12:26:24;;;;;;;;;;;;;;;29.34;45.30;94607.16;5047114;28;7186;-56
2023/08/12 12:29:22;;;;;;;;;;;;;;;29.37;44.60;94600.53;5046989;28;7328;-56
2023/08/12 12:31:57;;;;;;;;;;;;;;;29.38;45.57;94602.03;4983964;28;7258;-56
2023/08/12 12:34:25;;;;;;;;;;;;;;;29.38;44.97;94594.47;4971663;28;8803;-56
2023/08/12 12:36:53;;;;;;;;;;;;;;;29.37;45.34;94595.00;4977711;28;8681;-56
2023/08/12 12:39:23;;;;;;;;;;;;;;;29.40;45.61;94593.94;4954281;28;7014;-56
2023/08/12 12:41:51;;;;;;;;;;;;;;;29.41;45.08;94606.50;4983364;28;9419;-55
2023/08/12 12:44:19;;;;;;;;;;;;;;;29.43;45.09;94603.94;4987323;28;7055;-56
2023/08/12 12:46:54;;;;;;;;;;;;;;;29.43;44.75;94599.16;4972212;28;7205;-55
2023/08/12 12:49:42;;;;;;;;;;;;;;;29.47;45.53;94607.16;4940089;28;9069;-55
2023/08/12 12:52:19;;;;;;;;;;;;;;;29.47;45.43;94601.63;4967812;28;7354;-56
2023/08/12 12:54:46;;;;;;;;;;;;;;;29.44;45.16;94599.91;4958516;28;7129;-56
2023/08/12 12:57:14;;;;;;;;;;;;;;;29.48;44.53;94603.09;4960246;28;7310;-55
2023/08/12 12:59:42;;;;;;;;;;;;;;;29.47;44.45;94598.84;4971208;28;7268;-56
2023/08/12 13:02:33;;;;;;;;;;;;;;;29.51;45.09;94600.03;4959272;28;9107;-55
2023/08/12 13:05:01;;;;;;;;;;;;;;;29.51;44.43;94597.25;4960851;28;9036;-55
2023/08/12 13:07:27;;;;;;;;;;;;;;;29.51;45.20;94593.75;5027295;28;7170;-55
2023/08/12 13:09:53;;;;;;;;;;;;;;;29.52;45.00;94598.75;5046069;28;7081;-56
2023/08/12 13:12:29;;;;;;;;;;;;;;;29.52;44.44;94595.22;5046785;28;9296;-55
2023/08/12 13:14:56;;;;;;;;;;;;;;;29.53;45.73;94597.47;5038796;28;9151;-56
2023/08/12 13:17:32;;;;;;;;;;;;;;;29.56;45.81;94590.09;5063566;28;9097;-55
2023/08/12 13:20:05;;;;;;;;;;;;;;;29.57;45.42;94580.50;5059078;28;7348;-55
2023/08/12 13:22:31;;;;;;;;;;;;;;;29.56;45.60;94574.22;5063934;28;9004;-56
2023/08/12 13:24:57;;;;;;;;;;;;;;;29.60;45.54;94576.69;5040430;28;9392;-55
2023/08/12 13:27:27;;;;;;;;;;;;;;;29.61;45.34;94575.38;5079886;28;8223;-62
2023/08/12 13:30:01;;;;;;;;;;;;;;;29.61;45.48;94567.06;5044981;28;6988;-62
2023/08/12 13:32:27;;;;;;;;;;;;;;;29.63;44.74;94567.28;5048889;28;6996;-63
2023/08/12 13:35:00;;;;;;;;;;;;;;;29.66;44.31;94566.22;5048371;28;7404;-62
2023/08/12 13:37:55;;;;;;;;;;;;;;;29.67;45.68;94564.94;5046327;28;9021;-63
2023/08/12 13:40:48;;;;;;;;;;;;;;;29.64;45.79;94547.38;4989955;28;9181;-63
2023/08/12 13:43:15;;;;;;;;;;;;;;;29.65;44.86;94550.88;4983224;28;7222;-63
2023/08/12 13:45:52;;;;;;;;;;;;;;;29.67;44.68;94553.84;5002009;28;8786;-63
2023/08/12 13:48:21;;;;;;;;;;;;;;;29.66;44.49;94550.34;4998681;28;7054;-63